sensor_id;sensor_type;location;lat;lon;timestamp;P1;durP1;ratioP1;P2;durP2;ratioP2
76171;SDS011;64929;51.178;4.138;2023-04-25T00:02:10;8.48;;;1.63;;
76171;SDS011;64929;51.178;4.138;2023-04-25T00:04:35;4.15;;;1.52;;
76171;SDS011;64929;51.178;4.138;2023-04-25T00:07:02;4.43;;;1.45;;
76171;SDS011;64929;51.178;4.138;2023-04-25T00:09:28;4.63;;;1.45;;
76171;SDS011;64929;51.178;4.138;2023-04-25T00:11:54;8.73;;;2.08;;
76171;SDS011;64929;51.178;4.138;2023-04-25T00:14:20;4.03;;;1.65;;
76171;SDS011;64929;51.178;4.138;2023-04-25T00:16:46;6.75;;;1.67;;
76171;SDS011;64929;51.178;4.138;2023-04-25T00:19:13;7.00;;;1.75;;
76171;SDS011;64929;51.178;4.138;2023-04-25T00:21:39;5.30;;;2.28;;
76171;SDS011;64929;51.178;4.138;2023-04-25T00:24:06;7.10;;;1.85;;
76171;SDS011;64929;51.178;4.138;2023-04-25T00:26:33;2.83;;;1.20;;
76171;SDS011;64929;51.178;4.138;2023-04-25T00:29:00;5.88;;;1.67;;
76171;SDS011;64929;51.178;4.138;2023-04-25T00:31:26;8.15;;;1.77;;
76171;SDS011;64929;51.178;4.138;2023-04-25T00:33:51;6.78;;;2.05;;
76171;SDS011;64929;51.178;4.138;2023-04-25T00:36:18;6.20;;;1.83;;
76171;SDS011;64929;51.178;4.138;2023-04-25T00:38:44;3.90;;;1.83;;
76171;SDS011;64929;51.178;4.138;2023-04-25T00:41:09;8.60;;;2.08;;
76171;SDS011;64929;51.178;4.138;2023-04-25T00:43:36;4.97;;;1.42;;
76171;SDS011;64929;51.178;4.138;2023-04-25T00:46:02;4.28;;;1.70;;
76171;SDS011;64929;51.178;4.138;2023-04-25T00:48:28;7.13;;;1.80;;
76171;SDS011;64929;51.178;4.138;2023-04-25T00:50:55;5.57;;;1.80;;
76171;SDS011;64929;51.178;4.138;2023-04-25T00:53:25;7.90;;;1.80;;
76171;SDS011;64929;51.178;4.138;2023-04-25T00:55:52;6.47;;;1.55;;
76171;SDS011;64929;51.178;4.138;2023-04-25T00:58:19;4.22;;;1.52;;
76171;SDS011;64929;51.178;4.138;2023-04-25T01:00:46;6.15;;;1.95;;
76171;SDS011;64929;51.178;4.138;2023-04-25T01:03:13;5.35;;;2.03;;
76171;SDS011;64929;51.178;4.138;2023-04-25T01:05:42;5.88;;;1.90;;
76171;SDS011;64929;51.178;4.138;2023-04-25T01:08:09;4.05;;;1.40;;
76171;SDS011;64929;51.178;4.138;2023-04-25T01:10:35;2.58;;;1.27;;
76171;SDS011;64929;51.178;4.138;2023-04-25T01:13:01;7.30;;;1.58;;
76171;SDS011;64929;51.178;4.138;2023-04-25T01:15:27;5.20;;;1.52;;
76171;SDS011;64929;51.178;4.138;2023-04-25T01:17:54;2.33;;;1.40;;
76171;SDS011;64929;51.178;4.138;2023-04-25T01:20:23;4.63;;;1.42;;
76171;SDS011;64929;51.178;4.138;2023-04-25T01:22:50;3.78;;;1.23;;
76171;SDS011;64929;51.178;4.138;2023-04-25T01:25:16;3.70;;;1.25;;
76171;SDS011;64929;51.178;4.138;2023-04-25T01:27:43;5.25;;;1.30;;
76171;SDS011;64929;51.178;4.138;2023-04-25T01:30:09;4.20;;;1.65;;
76171;SDS011;64929;51.178;4.138;2023-04-25T01:32:35;5.28;;;1.30;;
76171;SDS011;64929;51.178;4.138;2023-04-25T01:35:05;3.72;;;1.73;;
76171;SDS011;64929;51.178;4.138;2023-04-25T01:37:43;4.93;;;2.25;;
76171;SDS011;64929;51.178;4.138;2023-04-25T01:40:10;13.23;;;2.55;;
76171;SDS011;64929;51.178;4.138;2023-04-25T01:42:37;5.82;;;2.00;;
76171;SDS011;64929;51.178;4.138;2023-04-25T01:45:06;3.80;;;1.30;;
76171;SDS011;64929;51.178;4.138;2023-04-25T01:47:32;7.15;;;1.50;;
76171;SDS011;64929;51.178;4.138;2023-04-25T01:50:00;6.90;;;1.35;;
76171;SDS011;64929;51.178;4.138;2023-04-25T01:52:26;4.95;;;1.45;;
76171;SDS011;64929;51.178;4.138;2023-04-25T01:54:52;8.75;;;1.55;;
76171;SDS011;64929;51.178;4.138;2023-04-25T01:57:18;3.70;;;1.38;;
76171;SDS011;64929;51.178;4.138;2023-04-25T01:59:44;4.88;;;1.35;;
76171;SDS011;64929;51.178;4.138;2023-04-25T02:02:11;6.57;;;1.27;;
76171;SDS011;64929;51.178;4.138;2023-04-25T02:04:37;5.55;;;1.80;;
76171;SDS011;64929;51.178;4.138;2023-04-25T02:07:03;7.80;;;1.98;;
76171;SDS011;64929;51.178;4.138;2023-04-25T02:09:29;2.92;;;1.15;;
76171;SDS011;64929;51.178;4.138;2023-04-25T02:11:55;3.08;;;1.50;;
76171;SDS011;64929;51.178;4.138;2023-04-25T02:14:20;4.63;;;1.60;;
76171;SDS011;64929;51.178;4.138;2023-04-25T02:16:46;5.85;;;1.40;;
76171;SDS011;64929;51.178;4.138;2023-04-25T02:19:12;3.58;;;1.20;;
76171;SDS011;64929;51.178;4.138;2023-04-25T02:21:38;4.40;;;1.15;;
76171;SDS011;64929;51.178;4.138;2023-04-25T02:24:03;3.53;;;1.55;;
76171;SDS011;64929;51.178;4.138;2023-04-25T02:26:29;5.63;;;1.30;;
76171;SDS011;64929;51.178;4.138;2023-04-25T02:28:56;4.72;;;1.45;;
76171;SDS011;64929;51.178;4.138;2023-04-25T02:31:22;3.67;;;1.45;;
76171;SDS011;64929;51.178;4.138;2023-04-25T02:33:48;6.57;;;1.40;;
76171;SDS011;64929;51.178;4.138;2023-04-25T02:36:13;4.43;;;1.45;;
76171;SDS011;64929;51.178;4.138;2023-04-25T02:38:39;4.95;;;1.73;;
76171;SDS011;64929;51.178;4.138;2023-04-25T02:41:05;5.18;;;1.50;;
76171;SDS011;64929;51.178;4.138;2023-04-25T02:43:31;5.63;;;1.77;;
76171;SDS011;64929;51.178;4.138;2023-04-25T02:45:57;3.67;;;1.15;;
76171;SDS011;64929;51.178;4.138;2023-04-25T02:48:23;6.85;;;1.13;;
76171;SDS011;64929;51.178;4.138;2023-04-25T02:50:48;3.85;;;1.52;;
76171;SDS011;64929;51.178;4.138;2023-04-25T02:53:14;4.10;;;1.38;;
76171;SDS011;64929;51.178;4.138;2023-04-25T02:55:40;6.57;;;1.42;;
76171;SDS011;64929;51.178;4.138;2023-04-25T02:58:05;4.80;;;1.13;;
76171;SDS011;64929;51.178;4.138;2023-04-25T03:00:31;5.47;;;1.30;;
76171;SDS011;64929;51.178;4.138;2023-04-25T03:02:57;9.13;;;1.83;;
76171;SDS011;64929;51.178;4.138;2023-04-25T03:05:23;5.22;;;1.77;;
76171;SDS011;64929;51.178;4.138;2023-04-25T03:07:48;5.63;;;1.70;;
76171;SDS011;64929;51.178;4.138;2023-04-25T03:10:14;7.28;;;1.70;;
76171;SDS011;64929;51.178;4.138;2023-04-25T03:12:40;8.20;;;1.77;;
76171;SDS011;64929;51.178;4.138;2023-04-25T03:15:05;4.70;;;1.60;;
76171;SDS011;64929;51.178;4.138;2023-04-25T03:17:31;4.32;;;1.25;;
76171;SDS011;64929;51.178;4.138;2023-04-25T03:19:57;5.85;;;1.20;;
76171;SDS011;64929;51.178;4.138;2023-04-25T03:22:23;6.05;;;1.88;;
76171;SDS011;64929;51.178;4.138;2023-04-25T03:24:49;3.30;;;1.48;;
76171;SDS011;64929;51.178;4.138;2023-04-25T03:27:15;7.28;;;1.50;;
76171;SDS011;64929;51.178;4.138;2023-04-25T03:29:41;5.28;;;1.55;;
76171;SDS011;64929;51.178;4.138;2023-04-25T03:32:07;3.85;;;1.60;;
76171;SDS011;64929;51.178;4.138;2023-04-25T03:34:33;5.38;;;1.30;;
76171;SDS011;64929;51.178;4.138;2023-04-25T03:36:58;2.78;;;1.33;;
76171;SDS011;64929;51.178;4.138;2023-04-25T03:39:24;3.10;;;1.13;;
76171;SDS011;64929;51.178;4.138;2023-04-25T03:41:50;6.75;;;1.55;;
76171;SDS011;64929;51.178;4.138;2023-04-25T03:44:16;4.72;;;1.35;;
76171;SDS011;64929;51.178;4.138;2023-04-25T03:46:42;5.72;;;1.63;;
76171;SDS011;64929;51.178;4.138;2023-04-25T03:49:08;7.97;;;1.40;;
76171;SDS011;64929;51.178;4.138;2023-04-25T03:51:33;4.45;;;1.58;;
76171;SDS011;64929;51.178;4.138;2023-04-25T03:53:59;3.50;;;1.10;;
76171;SDS011;64929;51.178;4.138;2023-04-25T03:56:25;5.05;;;1.20;;
76171;SDS011;64929;51.178;4.138;2023-04-25T03:58:50;5.60;;;1.25;;
76171;SDS011;64929;51.178;4.138;2023-04-25T04:01:16;4.03;;;1.35;;
76171;SDS011;64929;51.178;4.138;2023-04-25T04:03:42;5.18;;;1.30;;
76171;SDS011;64929;51.178;4.138;2023-04-25T04:06:08;2.42;;;0.90;;
76171;SDS011;64929;51.178;4.138;2023-04-25T04:08:34;6.97;;;1.60;;
76171;SDS011;64929;51.178;4.138;2023-04-25T04:11:00;5.63;;;1.08;;
76171;SDS011;64929;51.178;4.138;2023-04-25T04:13:26;2.38;;;1.27;;
76171;SDS011;64929;51.178;4.138;2023-04-25T04:15:53;2.17;;;1.05;;
76171;SDS011;64929;51.178;4.138;2023-04-25T04:18:18;5.05;;;1.55;;
76171;SDS011;64929;51.178;4.138;2023-04-25T04:20:44;3.80;;;1.40;;
76171;SDS011;64929;51.178;4.138;2023-04-25T04:23:10;2.25;;;1.27;;
76171;SDS011;64929;51.178;4.138;2023-04-25T04:25:36;3.28;;;1.00;;
76171;SDS011;64929;51.178;4.138;2023-04-25T04:28:02;6.50;;;1.73;;
76171;SDS011;64929;51.178;4.138;2023-04-25T04:30:28;3.85;;;1.00;;
76171;SDS011;64929;51.178;4.138;2023-04-25T04:32:54;3.17;;;1.02;;
76171;SDS011;64929;51.178;4.138;2023-04-25T04:35:21;3.65;;;1.58;;
76171;SDS011;64929;51.178;4.138;2023-04-25T04:37:47;4.28;;;1.00;;
76171;SDS011;64929;51.178;4.138;2023-04-25T04:40:13;6.13;;;1.20;;
76171;SDS011;64929;51.178;4.138;2023-04-25T04:42:43;2.40;;;1.08;;
76171;SDS011;64929;51.178;4.138;2023-04-25T04:45:10;2.78;;;1.08;;
76171;SDS011;64929;51.178;4.138;2023-04-25T04:47:37;5.15;;;1.45;;
76171;SDS011;64929;51.178;4.138;2023-04-25T04:50:04;7.75;;;1.10;;
76171;SDS011;64929;51.178;4.138;2023-04-25T04:52:38;6.82;;;1.23;;
76171;SDS011;64929;51.178;4.138;2023-04-25T04:55:04;3.03;;;1.00;;
76171;SDS011;64929;51.178;4.138;2023-04-25T04:57:30;3.00;;;2.05;;
76171;SDS011;64929;51.178;4.138;2023-04-25T04:59:57;2.92;;;1.15;;
76171;SDS011;64929;51.178;4.138;2023-04-25T05:02:24;8.25;;;1.30;;
76171;SDS011;64929;51.178;4.138;2023-04-25T05:04:50;3.03;;;1.17;;
76171;SDS011;64929;51.178;4.138;2023-04-25T05:07:16;5.93;;;1.45;;
76171;SDS011;64929;51.178;4.138;2023-04-25T05:09:43;5.90;;;1.35;;
76171;SDS011;64929;51.178;4.138;2023-04-25T05:12:08;1.98;;;0.93;;
76171;SDS011;64929;51.178;4.138;2023-04-25T05:14:34;5.97;;;1.10;;
76171;SDS011;64929;51.178;4.138;2023-04-25T05:17:00;4.85;;;1.15;;
76171;SDS011;64929;51.178;4.138;2023-04-25T05:19:26;4.47;;;1.92;;
76171;SDS011;64929;51.178;4.138;2023-04-25T05:21:51;6.10;;;1.20;;
76171;SDS011;64929;51.178;4.138;2023-04-25T05:24:17;4.63;;;1.42;;
76171;SDS011;64929;51.178;4.138;2023-04-25T05:26:43;3.80;;;1.08;;
76171;SDS011;64929;51.178;4.138;2023-04-25T05:29:09;3.92;;;1.25;;
76171;SDS011;64929;51.178;4.138;2023-04-25T05:31:35;5.20;;;1.27;;
76171;SDS011;64929;51.178;4.138;2023-04-25T05:34:01;5.22;;;1.10;;
76171;SDS011;64929;51.178;4.138;2023-04-25T05:36:27;3.80;;;1.10;;
76171;SDS011;64929;51.178;4.138;2023-04-25T05:38:53;3.17;;;0.93;;
76171;SDS011;64929;51.178;4.138;2023-04-25T05:41:18;2.67;;;1.20;;
76171;SDS011;64929;51.178;4.138;2023-04-25T05:43:45;4.03;;;1.20;;
76171;SDS011;64929;51.178;4.138;2023-04-25T05:46:12;3.30;;;0.90;;
76171;SDS011;64929;51.178;4.138;2023-04-25T05:48:38;3.42;;;1.40;;
76171;SDS011;64929;51.178;4.138;2023-04-25T05:51:04;3.13;;;1.58;;
76171;SDS011;64929;51.178;4.138;2023-04-25T05:53:33;4.82;;;1.25;;
76171;SDS011;64929;51.178;4.138;2023-04-25T05:55:59;3.17;;;1.17;;
76171;SDS011;64929;51.178;4.138;2023-04-25T05:58:26;5.07;;;1.23;;
76171;SDS011;64929;51.178;4.138;2023-04-25T06:00:52;3.58;;;1.17;;
76171;SDS011;64929;51.178;4.138;2023-04-25T06:03:18;7.80;;;1.58;;
76171;SDS011;64929;51.178;4.138;2023-04-25T06:05:44;3.88;;;1.30;;
76171;SDS011;64929;51.178;4.138;2023-04-25T06:08:09;5.70;;;1.33;;
76171;SDS011;64929;51.178;4.138;2023-04-25T06:10:35;2.55;;;1.00;;
76171;SDS011;64929;51.178;4.138;2023-04-25T06:13:01;5.90;;;1.27;;
76171;SDS011;64929;51.178;4.138;2023-04-25T06:15:27;2.67;;;1.70;;
76171;SDS011;64929;51.178;4.138;2023-04-25T06:17:53;3.67;;;1.00;;
76171;SDS011;64929;51.178;4.138;2023-04-25T06:20:19;2.92;;;1.20;;
76171;SDS011;64929;51.178;4.138;2023-04-25T06:22:48;2.90;;;1.27;;
76171;SDS011;64929;51.178;4.138;2023-04-25T06:25:14;2.53;;;0.88;;
76171;SDS011;64929;51.178;4.138;2023-04-25T06:27:40;2.38;;;0.95;;
76171;SDS011;64929;51.178;4.138;2023-04-25T06:30:06;4.85;;;1.50;;
76171;SDS011;64929;51.178;4.138;2023-04-25T06:32:32;5.60;;;0.90;;
76171;SDS011;64929;51.178;4.138;2023-04-25T06:34:59;2.20;;;0.88;;
76171;SDS011;64929;51.178;4.138;2023-04-25T06:37:25;3.60;;;0.85;;
76171;SDS011;64929;51.178;4.138;2023-04-25T06:39:51;1.35;;;0.90;;
76171;SDS011;64929;51.178;4.138;2023-04-25T06:42:17;1.38;;;0.80;;
76171;SDS011;64929;51.178;4.138;2023-04-25T06:44:43;2.05;;;1.05;;
76171;SDS011;64929;51.178;4.138;2023-04-25T06:47:08;2.67;;;1.25;;
76171;SDS011;64929;51.178;4.138;2023-04-25T06:49:34;2.95;;;0.93;;
76171;SDS011;64929;51.178;4.138;2023-04-25T06:52:00;0.85;;;0.50;;
76171;SDS011;64929;51.178;4.138;2023-04-25T06:54:25;1.65;;;0.80;;
76171;SDS011;64929;51.178;4.138;2023-04-25T06:56:53;2.03;;;0.70;;
76171;SDS011;64929;51.178;4.138;2023-04-25T06:59:19;3.97;;;0.90;;
76171;SDS011;64929;51.178;4.138;2023-04-25T07:01:45;3.53;;;1.17;;
76171;SDS011;64929;51.178;4.138;2023-04-25T07:04:10;3.50;;;0.73;;
76171;SDS011;64929;51.178;4.138;2023-04-25T07:06:36;2.17;;;0.82;;
76171;SDS011;64929;51.178;4.138;2023-04-25T07:09:10;1.00;;;0.60;;
76171;SDS011;64929;51.178;4.138;2023-04-25T07:11:36;3.80;;;0.70;;
76171;SDS011;64929;51.178;4.138;2023-04-25T07:14:02;1.52;;;0.63;;
76171;SDS011;64929;51.178;4.138;2023-04-25T07:16:28;3.42;;;0.50;;
76171;SDS011;64929;51.178;4.138;2023-04-25T07:18:54;1.88;;;0.75;;
76171;SDS011;64929;51.178;4.138;2023-04-25T07:21:20;4.60;;;0.90;;
76171;SDS011;64929;51.178;4.138;2023-04-25T07:23:46;3.72;;;0.95;;
76171;SDS011;64929;51.178;4.138;2023-04-25T07:26:12;2.97;;;0.65;;
76171;SDS011;64929;51.178;4.138;2023-04-25T07:28:38;2.83;;;0.75;;
76171;SDS011;64929;51.178;4.138;2023-04-25T07:31:04;5.40;;;0.73;;
76171;SDS011;64929;51.178;4.138;2023-04-25T07:33:30;1.30;;;0.70;;
76171;SDS011;64929;51.178;4.138;2023-04-25T07:35:56;3.53;;;0.80;;
76171;SDS011;64929;51.178;4.138;2023-04-25T07:38:22;5.10;;;0.85;;
76171;SDS011;64929;51.178;4.138;2023-04-25T07:40:50;3.38;;;0.68;;
76171;SDS011;64929;51.178;4.138;2023-04-25T07:43:16;1.98;;;0.63;;
76171;SDS011;64929;51.178;4.138;2023-04-25T07:45:45;1.50;;;0.60;;
76171;SDS011;64929;51.178;4.138;2023-04-25T07:48:16;1.50;;;0.70;;
76171;SDS011;64929;51.178;4.138;2023-04-25T07:50:43;2.08;;;0.50;;
76171;SDS011;64929;51.178;4.138;2023-04-25T07:53:09;0.60;;;0.50;;
76171;SDS011;64929;51.178;4.138;2023-04-25T07:55:35;2.08;;;0.52;;
76171;SDS011;64929;51.178;4.138;2023-04-25T07:58:01;5.50;;;1.10;;
76171;SDS011;64929;51.178;4.138;2023-04-25T08:00:28;7.13;;;1.17;;
76171;SDS011;64929;51.178;4.138;2023-04-25T08:02:53;2.72;;;0.60;;
76171;SDS011;64929;51.178;4.138;2023-04-25T08:05:19;0.98;;;0.63;;
76171;SDS011;64929;51.178;4.138;2023-04-25T08:07:45;2.53;;;0.45;;
76171;SDS011;64929;51.178;4.138;2023-04-25T08:10:11;1.77;;;0.77;;
76171;SDS011;64929;51.178;4.138;2023-04-25T08:12:36;3.45;;;0.85;;
76171;SDS011;64929;51.178;4.138;2023-04-25T08:15:03;3.63;;;0.77;;
76171;SDS011;64929;51.178;4.138;2023-04-25T08:17:30;0.93;;;0.50;;
76171;SDS011;64929;51.178;4.138;2023-04-25T08:19:56;4.38;;;0.60;;
76171;SDS011;64929;51.178;4.138;2023-04-25T08:22:22;2.35;;;0.88;;
76171;SDS011;64929;51.178;4.138;2023-04-25T08:24:47;4.20;;;0.70;;
76171;SDS011;64929;51.178;4.138;2023-04-25T08:27:13;4.55;;;0.60;;
76171;SDS011;64929;51.178;4.138;2023-04-25T08:29:39;2.58;;;1.08;;
76171;SDS011;64929;51.178;4.138;2023-04-25T08:32:04;2.40;;;0.57;;
76171;SDS011;64929;51.178;4.138;2023-04-25T08:34:30;3.70;;;1.10;;
76171;SDS011;64929;51.178;4.138;2023-04-25T08:36:56;4.22;;;0.70;;
76171;SDS011;64929;51.178;4.138;2023-04-25T08:39:21;3.55;;;0.70;;
76171;SDS011;64929;51.178;4.138;2023-04-25T08:41:47;3.60;;;0.68;;
76171;SDS011;64929;51.178;4.138;2023-04-25T08:44:13;3.13;;;0.73;;
76171;SDS011;64929;51.178;4.138;2023-04-25T08:46:41;1.58;;;0.80;;
76171;SDS011;64929;51.178;4.138;2023-04-25T08:49:07;1.33;;;0.50;;
76171;SDS011;64929;51.178;4.138;2023-04-25T08:51:34;2.03;;;0.40;;
76171;SDS011;64929;51.178;4.138;2023-04-25T08:54:09;0.50;;;0.50;;
76171;SDS011;64929;51.178;4.138;2023-04-25T08:56:37;2.78;;;0.80;;
76171;SDS011;64929;51.178;4.138;2023-04-25T08:59:05;3.80;;;0.50;;
76171;SDS011;64929;51.178;4.138;2023-04-25T09:01:33;0.75;;;0.60;;
76171;SDS011;64929;51.178;4.138;2023-04-25T09:04:00;1.45;;;0.40;;
76171;SDS011;64929;51.178;4.138;2023-04-25T09:06:27;1.38;;;1.02;;
76171;SDS011;64929;51.178;4.138;2023-04-25T09:09:03;1.98;;;0.43;;
76171;SDS011;64929;51.178;4.138;2023-04-25T09:11:30;0.77;;;0.50;;
76171;SDS011;64929;51.178;4.138;2023-04-25T09:19:25;1.83;;;0.70;;
76171;SDS011;64929;51.178;4.138;2023-04-25T09:21:56;0.77;;;0.50;;
76171;SDS011;64929;51.178;4.138;2023-04-25T09:24:42;1.17;;;0.60;;
76171;SDS011;64929;51.178;4.138;2023-04-25T09:27:11;0.40;;;0.40;;
76171;SDS011;64929;51.178;4.138;2023-04-25T09:29:42;1.80;;;0.73;;
76171;SDS011;64929;51.178;4.138;2023-04-25T09:32:41;2.63;;;0.40;;
76171;SDS011;64929;51.178;4.138;2023-04-25T09:35:00;2.58;;;0.50;;
76171;SDS011;64929;51.178;4.138;2023-04-25T09:37:26;4.00;;;0.50;;
76171;SDS011;64929;51.178;4.138;2023-04-25T09:39:53;1.25;;;0.45;;
76171;SDS011;64929;51.178;4.138;2023-04-25T09:42:24;2.85;;;0.55;;
76171;SDS011;64929;51.178;4.138;2023-04-25T09:44:52;2.60;;;0.60;;
76171;SDS011;64929;51.178;4.138;2023-04-25T09:47:19;2.80;;;1.10;;
76171;SDS011;64929;51.178;4.138;2023-04-25T09:49:47;4.25;;;0.50;;
76171;SDS011;64929;51.178;4.138;2023-04-25T09:52:14;0.50;;;0.50;;
76171;SDS011;64929;51.178;4.138;2023-04-25T09:54:47;4.30;;;1.02;;
76171;SDS011;64929;51.178;4.138;2023-04-25T09:57:18;1.33;;;0.40;;
76171;SDS011;64929;51.178;4.138;2023-04-25T09:59:47;1.05;;;0.40;;
76171;SDS011;64929;51.178;4.138;2023-04-25T10:02:17;1.65;;;0.50;;
76171;SDS011;64929;51.178;4.138;2023-04-25T10:04:47;2.38;;;0.70;;
76171;SDS011;64929;51.178;4.138;2023-04-25T10:07:14;3.45;;;0.57;;
76171;SDS011;64929;51.178;4.138;2023-04-25T10:09:40;3.03;;;0.93;;
76171;SDS011;64929;51.178;4.138;2023-04-25T10:12:07;1.95;;;0.85;;
76171;SDS011;64929;51.178;4.138;2023-04-25T10:14:34;2.17;;;0.68;;
76171;SDS011;64929;51.178;4.138;2023-04-25T10:17:01;2.70;;;0.70;;
76171;SDS011;64929;51.178;4.138;2023-04-25T10:19:27;2.55;;;0.68;;
76171;SDS011;64929;51.178;4.138;2023-04-25T10:24:47;2.50;;;0.60;;
76171;SDS011;64929;51.178;4.138;2023-04-25T10:27:14;1.58;;;0.95;;
76171;SDS011;64929;51.178;4.138;2023-04-25T10:29:40;1.08;;;0.40;;
76171;SDS011;64929;51.178;4.138;2023-04-25T10:32:08;0.57;;;0.30;;
76171;SDS011;64929;51.178;4.138;2023-04-25T10:34:43;2.65;;;0.60;;
76171;SDS011;64929;51.178;4.138;2023-04-25T10:37:12;1.10;;;0.73;;
76171;SDS011;64929;51.178;4.138;2023-04-25T10:39:39;2.45;;;0.68;;
76171;SDS011;64929;51.178;4.138;2023-04-25T10:42:06;2.83;;;0.73;;
76171;SDS011;64929;51.178;4.138;2023-04-25T10:44:36;1.95;;;0.40;;
76171;SDS011;64929;51.178;4.138;2023-04-25T10:47:05;3.70;;;0.50;;
76171;SDS011;64929;51.178;4.138;2023-04-25T10:49:35;0.73;;;0.40;;
76171;SDS011;64929;51.178;4.138;2023-04-25T10:54:47;0.90;;;0.32;;
76171;SDS011;64929;51.178;4.138;2023-04-25T10:57:26;5.05;;;0.63;;
76171;SDS011;64929;51.178;4.138;2023-04-25T10:59:54;1.08;;;0.20;;
76171;SDS011;64929;51.178;4.138;2023-04-25T11:02:23;4.43;;;0.52;;
76171;SDS011;64929;51.178;4.138;2023-04-25T11:04:53;2.70;;;0.30;;
76171;SDS011;64929;51.178;4.138;2023-04-25T11:09:56;0.30;;;0.20;;
76171;SDS011;64929;51.178;4.138;2023-04-25T11:12:24;1.27;;;0.30;;
76171;SDS011;64929;51.178;4.138;2023-04-25T11:14:50;2.17;;;0.20;;
76171;SDS011;64929;51.178;4.138;2023-04-25T11:17:15;1.00;;;0.43;;
76171;SDS011;64929;51.178;4.138;2023-04-25T11:19:41;1.25;;;0.40;;
76171;SDS011;64929;51.178;4.138;2023-04-25T11:22:06;1.75;;;0.20;;
76171;SDS011;64929;51.178;4.138;2023-04-25T11:24:33;2.60;;;0.47;;
76171;SDS011;64929;51.178;4.138;2023-04-25T11:27:03;0.50;;;0.30;;
76171;SDS011;64929;51.178;4.138;2023-04-25T11:29:31;0.70;;;0.47;;
76171;SDS011;64929;51.178;4.138;2023-04-25T11:31:58;2.08;;;0.40;;
76171;SDS011;64929;51.178;4.138;2023-04-25T11:34:25;2.95;;;0.55;;
76171;SDS011;64929;51.178;4.138;2023-04-25T11:36:51;2.10;;;0.30;;
76171;SDS011;64929;51.178;4.138;2023-04-25T11:39:18;2.17;;;0.52;;
76171;SDS011;64929;51.178;4.138;2023-04-25T11:41:45;1.80;;;0.30;;
76171;SDS011;64929;51.178;4.138;2023-04-25T11:44:11;1.05;;;0.35;;
76171;SDS011;64929;51.178;4.138;2023-04-25T11:46:40;4.13;;;0.35;;
76171;SDS011;64929;51.178;4.138;2023-04-25T11:49:05;2.63;;;0.30;;
76171;SDS011;64929;51.178;4.138;2023-04-25T11:51:37;2.60;;;0.50;;
76171;SDS011;64929;51.178;4.138;2023-04-25T11:54:06;2.40;;;0.45;;
76171;SDS011;64929;51.178;4.138;2023-04-25T11:56:32;0.60;;;0.35;;
76171;SDS011;64929;51.178;4.138;2023-04-25T11:59:01;2.78;;;0.40;;
76171;SDS011;64929;51.178;4.138;2023-04-25T12:01:32;0.75;;;0.40;;
76171;SDS011;64929;51.178;4.138;2023-04-25T12:04:09;1.33;;;0.45;;
76171;SDS011;64929;51.178;4.138;2023-04-25T12:06:37;2.63;;;0.30;;
76171;SDS011;64929;51.178;4.138;2023-04-25T12:09:06;1.67;;;0.30;;
76171;SDS011;64929;51.178;4.138;2023-04-25T12:11:40;0.55;;;0.50;;
76171;SDS011;64929;51.178;4.138;2023-04-25T12:14:26;1.60;;;0.40;;
76171;SDS011;64929;51.178;4.138;2023-04-25T12:16:55;1.52;;;0.40;;
76171;SDS011;64929;51.178;4.138;2023-04-25T12:19:22;0.73;;;0.28;;
76171;SDS011;64929;51.178;4.138;2023-04-25T12:21:49;0.82;;;0.30;;
76171;SDS011;64929;51.178;4.138;2023-04-25T12:24:16;1.70;;;0.57;;
76171;SDS011;64929;51.178;4.138;2023-04-25T12:26:51;2.25;;;0.45;;
76171;SDS011;64929;51.178;4.138;2023-04-25T12:29:22;0.90;;;0.40;;
76171;SDS011;64929;51.178;4.138;2023-04-25T12:31:50;3.13;;;0.85;;
76171;SDS011;64929;51.178;4.138;2023-04-25T12:34:17;0.68;;;0.30;;
76171;SDS011;64929;51.178;4.138;2023-04-25T12:36:43;2.58;;;0.50;;
76171;SDS011;64929;51.178;4.138;2023-04-25T12:39:16;2.60;;;0.40;;
76171;SDS011;64929;51.178;4.138;2023-04-25T12:41:44;1.33;;;0.57;;
76171;SDS011;64929;51.178;4.138;2023-04-25T12:44:10;2.58;;;0.35;;
76171;SDS011;64929;51.178;4.138;2023-04-25T12:46:37;1.08;;;0.30;;
76171;SDS011;64929;51.178;4.138;2023-04-25T12:49:03;5.75;;;0.40;;
76171;SDS011;64929;51.178;4.138;2023-04-25T12:51:31;0.90;;;0.52;;
76171;SDS011;64929;51.178;4.138;2023-04-25T12:53:58;0.47;;;0.13;;
76171;SDS011;64929;51.178;4.138;2023-04-25T12:56:27;3.30;;;0.40;;
76171;SDS011;64929;51.178;4.138;2023-04-25T12:58:53;1.50;;;0.60;;
76171;SDS011;64929;51.178;4.138;2023-04-25T13:01:20;0.13;;;0.13;;
76171;SDS011;64929;51.178;4.138;2023-04-25T13:03:46;1.17;;;0.47;;
76171;SDS011;64929;51.178;4.138;2023-04-25T13:06:12;0.60;;;0.38;;
76171;SDS011;64929;51.178;4.138;2023-04-25T13:08:38;0.95;;;0.28;;
76171;SDS011;64929;51.178;4.138;2023-04-25T13:11:04;0.90;;;0.30;;
76171;SDS011;64929;51.178;4.138;2023-04-25T13:13:31;1.95;;;0.50;;
76171;SDS011;64929;51.178;4.138;2023-04-25T13:15:57;2.05;;;0.50;;
76171;SDS011;64929;51.178;4.138;2023-04-25T13:18:23;1.73;;;0.40;;
76171;SDS011;64929;51.178;4.138;2023-04-25T13:20:52;3.63;;;0.50;;
76171;SDS011;64929;51.178;4.138;2023-04-25T13:23:18;0.75;;;0.50;;
76171;SDS011;64929;51.178;4.138;2023-04-25T13:25:45;1.05;;;0.47;;
76171;SDS011;64929;51.178;4.138;2023-04-25T13:28:11;1.67;;;0.40;;
76171;SDS011;64929;51.178;4.138;2023-04-25T13:30:37;1.25;;;0.43;;
76171;SDS011;64929;51.178;4.138;2023-04-25T13:33:03;2.17;;;0.63;;
76171;SDS011;64929;51.178;4.138;2023-04-25T13:35:29;3.25;;;0.40;;
76171;SDS011;64929;51.178;4.138;2023-04-25T13:37:56;1.05;;;0.30;;
76171;SDS011;64929;51.178;4.138;2023-04-25T13:40:21;6.63;;;0.85;;
76171;SDS011;64929;51.178;4.138;2023-04-25T13:42:47;1.77;;;0.57;;
76171;SDS011;64929;51.178;4.138;2023-04-25T13:45:13;1.48;;;0.47;;
76171;SDS011;64929;51.178;4.138;2023-04-25T13:47:39;2.72;;;0.45;;
76171;SDS011;64929;51.178;4.138;2023-04-25T13:50:04;1.75;;;0.20;;
76171;SDS011;64929;51.178;4.138;2023-04-25T13:52:32;0.55;;;0.20;;
76171;SDS011;64929;51.178;4.138;2023-04-25T13:54:57;0.80;;;0.50;;
76171;SDS011;64929;51.178;4.138;2023-04-25T13:57:23;2.95;;;0.57;;
76171;SDS011;64929;51.178;4.138;2023-04-25T13:59:49;1.30;;;0.30;;
76171;SDS011;64929;51.178;4.138;2023-04-25T14:02:15;2.28;;;0.40;;
76171;SDS011;64929;51.178;4.138;2023-04-25T14:04:41;0.50;;;0.35;;
76171;SDS011;64929;51.178;4.138;2023-04-25T14:07:07;0.80;;;0.20;;
76171;SDS011;64929;51.178;4.138;2023-04-25T14:09:33;0.68;;;0.22;;
76171;SDS011;64929;51.178;4.138;2023-04-25T14:11:59;1.42;;;0.38;;
76171;SDS011;64929;51.178;4.138;2023-04-25T14:14:25;1.45;;;0.30;;
76171;SDS011;64929;51.178;4.138;2023-04-25T14:16:51;1.40;;;0.47;;
76171;SDS011;64929;51.178;4.138;2023-04-25T14:19:18;1.27;;;0.40;;
76171;SDS011;64929;51.178;4.138;2023-04-25T14:21:45;0.57;;;0.22;;
76171;SDS011;64929;51.178;4.138;2023-04-25T14:24:11;3.60;;;0.40;;
76171;SDS011;64929;51.178;4.138;2023-04-25T14:26:37;2.67;;;0.50;;
76171;SDS011;64929;51.178;4.138;2023-04-25T14:29:04;0.98;;;0.50;;
76171;SDS011;64929;51.178;4.138;2023-04-25T14:33:59;2.88;;;0.40;;
76171;SDS011;64929;51.178;4.138;2023-04-25T14:36:25;0.55;;;0.30;;
76171;SDS011;64929;51.178;4.138;2023-04-25T14:38:52;0.35;;;0.20;;
76171;SDS011;64929;51.178;4.138;2023-04-25T14:41:18;1.02;;;0.40;;
76171;SDS011;64929;51.178;4.138;2023-04-25T14:43:44;1.73;;;0.40;;
76171;SDS011;64929;51.178;4.138;2023-04-25T14:46:10;4.20;;;0.40;;
76171;SDS011;64929;51.178;4.138;2023-04-25T14:48:36;0.30;;;0.20;;
76171;SDS011;64929;51.178;4.138;2023-04-25T14:51:02;2.55;;;0.40;;
76171;SDS011;64929;51.178;4.138;2023-04-25T14:53:27;0.75;;;0.40;;
76171;SDS011;64929;51.178;4.138;2023-04-25T14:55:53;2.30;;;0.40;;
76171;SDS011;64929;51.178;4.138;2023-04-25T14:58:19;0.73;;;0.55;;
76171;SDS011;64929;51.178;4.138;2023-04-25T15:00:46;0.80;;;0.65;;
76171;SDS011;64929;51.178;4.138;2023-04-25T15:03:12;1.17;;;0.35;;